WZZ14P LZIB-OOMS
Flight info
| Callsign | WZZ14P |
|---|---|
| Flight time | N/A |
| Altitude | 29000 |
| Route | VAMOG DCT SIRDU DCT BABIT DCT NISVA/N0459F310 DCT NIKTI DCT PAXIS L607 NABSI/N0462F330 P557 OBRAN L321 REXUM M872 PMA Y214 RAPMA DCT KUVSO DCT KATIT DCT MIDGU M717 PUTSO N685 LAKLU |
| Aircraft | A321/M-SDE3FGHIRWY/LB1 |
Departure
| Time | N/A |
|---|---|
| Airport | M. R. Štefánik Airport (LZIB) |
Arrival
| Time | 2026-04-27 14:27 |
|---|---|
| Airport | Muscat International Airport (OOMS) |
| Time | Latitude | Longitude | Altitude | Speed | Heading |
|---|---|---|---|---|---|
| 2026-04-27 11:00 | 33.48752 | 27.70568 | 29542 ft | 514 kts | 148° |
| 2026-04-27 11:00 | 33.45771 | 27.72936 | 29709 ft | 514 kts | 148° |
| 2026-04-27 11:00 | 33.42791 | 27.75307 | 29886 ft | 514 kts | 149° |
| 2026-04-27 11:00 | 33.39813 | 27.77679 | 30093 ft | 514 kts | 149° |
| 2026-04-27 11:01 | 33.36835 | 27.80046 | 30267 ft | 514 kts | 149° |
| 2026-04-27 11:01 | 33.33856 | 27.82410 | 30427 ft | 514 kts | 149° |
| 2026-04-27 11:01 | 33.30876 | 27.84771 | 30594 ft | 514 kts | 149° |
| 2026-04-27 11:01 | 33.27898 | 27.87131 | 30760 ft | 514 kts | 150° |
| 2026-04-27 11:02 | 33.24927 | 27.89485 | 30921 ft | 513 kts | 150° |
| 2026-04-27 11:02 | 33.21952 | 27.91843 | 31086 ft | 513 kts | 150° |
| 2026-04-27 11:02 | 33.18978 | 27.94197 | 31256 ft | 513 kts | 150° |
| 2026-04-27 11:02 | 33.16003 | 27.96545 | 31422 ft | 512 kts | 150° |
| 2026-04-27 11:03 | 33.13030 | 27.98886 | 31589 ft | 512 kts | 150° |
| 2026-04-27 11:03 | 33.10059 | 28.01225 | 31772 ft | 511 kts | 150° |
| 2026-04-27 11:03 | 33.07092 | 28.03562 | 31932 ft | 511 kts | 150° |
| 2026-04-27 11:03 | 33.04129 | 28.05898 | 32103 ft | 510 kts | 150° |
| 2026-04-27 11:04 | 33.01168 | 28.08230 | 32277 ft | 510 kts | 150° |
| 2026-04-27 11:04 | 32.98211 | 28.10554 | 32455 ft | 509 kts | 150° |
| 2026-04-27 11:04 | 32.95257 | 28.12874 | 32624 ft | 508 kts | 150° |
| 2026-04-27 11:04 | 32.92308 | 28.15191 | 32806 ft | 507 kts | 150° |
| 2026-04-27 11:05 | 32.89367 | 28.17497 | 32981 ft | 506 kts | 150° |
| 2026-04-27 11:05 | 32.86421 | 28.19805 | 33040 ft | 508 kts | 150° |
| 2026-04-27 11:05 | 32.80558 | 28.24395 | 33055 ft | 508 kts | 150° |
| 2026-04-27 11:06 | 32.74657 | 28.29007 | 33052 ft | 507 kts | 150° |
| 2026-04-27 11:06 | 32.68758 | 28.33601 | 33051 ft | 507 kts | 150° |
| 2026-04-27 11:07 | 32.62863 | 28.38183 | 33048 ft | 506 kts | 151° |
| 2026-04-27 11:07 | 32.56973 | 28.42758 | 33043 ft | 507 kts | 151° |
| 2026-04-27 11:08 | 32.51072 | 28.47346 | 33047 ft | 507 kts | 151° |
| 2026-04-27 11:08 | 32.45162 | 28.51934 | 33049 ft | 508 kts | 151° |
| 2026-04-27 11:09 | 32.39237 | 28.56509 | 33056 ft | 509 kts | 151° |
| 2026-04-27 11:09 | 32.33309 | 28.61083 | 33043 ft | 508 kts | 152° |
| 2026-04-27 11:10 | 32.27391 | 28.65657 | 33042 ft | 508 kts | 152° |
| 2026-04-27 11:10 | 32.21472 | 28.70228 | 33042 ft | 508 kts | 152° |
| 2026-04-27 11:11 | 32.15549 | 28.74781 | 33042 ft | 509 kts | 152° |
| 2026-04-27 11:11 | 32.09427 | 28.78865 | 33043 ft | 504 kts | 157° |
| 2026-04-27 11:12 | 32.03202 | 28.82686 | 33040 ft | 504 kts | 158° |
| 2026-04-27 11:12 | 31.96953 | 28.86456 | 33045 ft | 505 kts | 158° |
| 2026-04-27 11:13 | 31.90710 | 28.90247 | 33062 ft | 505 kts | 158° |
| 2026-04-27 11:13 | 31.84475 | 28.94070 | 33058 ft | 505 kts | 158° |
| 2026-04-27 11:14 | 31.78242 | 28.97891 | 33050 ft | 505 kts | 158° |
| 2026-04-27 11:14 | 31.72006 | 29.01693 | 33057 ft | 505 kts | 158° |
| 2026-04-27 11:15 | 31.65779 | 29.05480 | 33047 ft | 504 kts | 158° |
| 2026-04-27 11:15 | 31.59547 | 29.09266 | 33046 ft | 504 kts | 159° |
| 2026-04-27 11:16 | 31.53311 | 29.13045 | 33048 ft | 505 kts | 159° |
| 2026-04-27 11:16 | 31.47112 | 29.16795 | 33052 ft | 505 kts | 159° |
| 2026-04-27 11:17 | 31.40867 | 29.20572 | 33056 ft | 505 kts | 159° |
| 2026-04-27 11:17 | 31.34619 | 29.24351 | 33053 ft | 506 kts | 159° |
| 2026-04-27 11:18 | 31.28377 | 29.28126 | 33056 ft | 505 kts | 159° |
| 2026-04-27 11:18 | 31.22128 | 29.31890 | 33067 ft | 505 kts | 159° |
| 2026-04-27 11:19 | 31.15871 | 29.35634 | 33063 ft | 505 kts | 159° |
| 2026-04-27 11:19 | 31.09614 | 29.39380 | 33065 ft | 505 kts | 159° |
| 2026-04-27 11:20 | 31.03364 | 29.43139 | 33050 ft | 505 kts | 159° |
| 2026-04-27 11:20 | 30.97125 | 29.46876 | 33053 ft | 504 kts | 159° |
| 2026-04-27 11:21 | 30.90882 | 29.50604 | 33050 ft | 504 kts | 159° |
| 2026-04-27 11:21 | 30.84678 | 29.54308 | 33050 ft | 505 kts | 159° |
| 2026-04-27 11:22 | 30.79447 | 29.57426 | 33052 ft | 505 kts | 160° |
| 2026-04-27 11:22 | 30.72180 | 29.61744 | 33048 ft | 505 kts | 160° |
| 2026-04-27 11:23 | 30.66932 | 29.64861 | 33046 ft | 505 kts | 160° |
| 2026-04-27 11:23 | 30.60669 | 29.68583 | 33045 ft | 506 kts | 160° |
| 2026-04-27 11:24 | 30.54445 | 29.72277 | 33036 ft | 505 kts | 160° |
| 2026-04-27 11:24 | 30.48147 | 29.76011 | 33035 ft | 505 kts | 160° |
| 2026-04-27 11:25 | 30.41920 | 29.79683 | 33026 ft | 505 kts | 160° |
| 2026-04-27 11:25 | 30.35652 | 29.83369 | 33026 ft | 505 kts | 160° |
| 2026-04-27 11:26 | 30.29379 | 29.87058 | 33021 ft | 506 kts | 160° |
| 2026-04-27 11:26 | 30.23100 | 29.90758 | 33022 ft | 507 kts | 160° |
| 2026-04-27 11:27 | 30.16821 | 29.94454 | 33025 ft | 507 kts | 160° |
| 2026-04-27 11:27 | 30.10524 | 29.98148 | 33026 ft | 508 kts | 160° |
| 2026-04-27 11:28 | 30.04218 | 30.01838 | 33027 ft | 508 kts | 160° |
| 2026-04-27 11:28 | 29.97904 | 30.05524 | 33006 ft | 509 kts | 158° |
| 2026-04-27 11:29 | 29.91592 | 30.09210 | 33028 ft | 508 kts | 157° |
| 2026-04-27 11:29 | 29.85284 | 30.12894 | 33028 ft | 508 kts | 157° |
| 2026-04-27 11:30 | 29.78984 | 30.16569 | 33024 ft | 508 kts | 157° |
| 2026-04-27 11:30 | 29.72670 | 30.20243 | 33027 ft | 509 kts | 157° |
| 2026-04-27 11:31 | 29.66345 | 30.23913 | 33021 ft | 509 kts | 158° |
| 2026-04-27 11:31 | 29.60052 | 30.27553 | 33022 ft | 510 kts | 158° |
| 2026-04-27 11:32 | 29.53715 | 30.31224 | 33021 ft | 510 kts | 158° |
| 2026-04-27 11:32 | 29.47379 | 30.34901 | 33019 ft | 510 kts | 158° |
| 2026-04-27 11:33 | 29.41091 | 30.38704 | 33016 ft | 514 kts | 150° |
| 2026-04-27 11:33 | 29.35693 | 30.44155 | 33023 ft | 522 kts | 137° |
| 2026-04-27 11:34 | 29.30668 | 30.50175 | 33026 ft | 523 kts | 137° |
| 2026-04-27 11:34 | 29.25619 | 30.56180 | 33031 ft | 523 kts | 137° |
| 2026-04-27 11:35 | 29.20555 | 30.62171 | 33033 ft | 523 kts | 137° |
| 2026-04-27 11:35 | 29.15501 | 30.68172 | 33034 ft | 524 kts | 137° |
| 2026-04-27 11:36 | 29.10450 | 30.74180 | 33036 ft | 524 kts | 137° |
| 2026-04-27 11:36 | 29.05425 | 30.80139 | 33039 ft | 524 kts | 137° |
| 2026-04-27 11:37 | 29.00433 | 30.86212 | 33032 ft | 525 kts | 136° |
| 2026-04-27 11:37 | 28.95496 | 30.92414 | 33057 ft | 529 kts | 135° |
| 2026-04-27 11:38 | 28.90520 | 30.98651 | 33061 ft | 532 kts | 136° |
| 2026-04-27 11:38 | 28.85514 | 31.04846 | 33061 ft | 530 kts | 136° |
| 2026-04-27 11:39 | 28.80513 | 31.11007 | 33057 ft | 528 kts | 136° |
| 2026-04-27 11:39 | 28.75522 | 31.17155 | 33055 ft | 528 kts | 136° |
| 2026-04-27 11:40 | 28.70532 | 31.23301 | 33055 ft | 528 kts | 137° |
| 2026-04-27 11:40 | 28.65535 | 31.29445 | 33049 ft | 529 kts | 137° |
| 2026-04-27 11:41 | 28.60536 | 31.35576 | 33048 ft | 529 kts | 137° |
| 2026-04-27 11:41 | 28.55526 | 31.41719 | 33045 ft | 530 kts | 137° |
| 2026-04-27 11:42 | 28.50508 | 31.47866 | 33046 ft | 530 kts | 137° |
| 2026-04-27 11:42 | 28.45513 | 31.53973 | 33051 ft | 531 kts | 137° |
| 2026-04-27 11:43 | 28.40479 | 31.60125 | 33048 ft | 532 kts | 137° |
| 2026-04-27 11:43 | 28.35435 | 31.66270 | 33049 ft | 532 kts | 137° |
| 2026-04-27 11:44 | 28.30387 | 31.72411 | 33046 ft | 532 kts | 137° |
| 2026-04-27 11:44 | 28.25336 | 31.78550 | 33041 ft | 532 kts | 138° |
| 2026-04-27 11:45 | 28.21131 | 31.83646 | 33043 ft | 533 kts | 138° |
| 2026-04-27 11:45 | 28.15202 | 31.90821 | 33043 ft | 534 kts | 138° |
| 2026-04-27 11:46 | 28.10118 | 31.96959 | 33045 ft | 534 kts | 138° |
| 2026-04-27 11:46 | 28.05041 | 32.03111 | 33038 ft | 536 kts | 136° |
| 2026-04-27 11:47 | 28.00909 | 32.10204 | 33031 ft | 545 kts | 122° |
| 2026-04-27 11:47 | 27.97293 | 32.17747 | 33019 ft | 546 kts | 122° |
| 2026-04-27 11:48 | 27.93651 | 32.25286 | 33009 ft | 547 kts | 122° |
| 2026-04-27 11:48 | 27.90021 | 32.32780 | 32996 ft | 547 kts | 122° |
| 2026-04-27 11:49 | 27.86363 | 32.40339 | 32985 ft | 549 kts | 122° |
| 2026-04-27 11:49 | 27.82697 | 32.47913 | 32979 ft | 550 kts | 122° |
| 2026-04-27 11:50 | 27.79017 | 32.55483 | 32979 ft | 551 kts | 123° |
| 2026-04-27 11:50 | 27.75318 | 32.63066 | 32972 ft | 552 kts | 123° |
| 2026-04-27 11:51 | 27.71614 | 32.70661 | 32967 ft | 553 kts | 123° |
| 2026-04-27 11:52 | 27.66049 | 32.82080 | 32957 ft | 554 kts | 123° |
| 2026-04-27 11:52 | 27.62319 | 32.89700 | 32953 ft | 555 kts | 123° |
| 2026-04-27 11:53 | 27.58578 | 32.97325 | 32946 ft | 556 kts | 123° |
| 2026-04-27 11:53 | 27.54823 | 33.04953 | 32947 ft | 557 kts | 123° |
| 2026-04-27 11:54 | 27.51071 | 33.12583 | 32944 ft | 558 kts | 123° |
| 2026-04-27 11:54 | 27.47306 | 33.20231 | 32945 ft | 559 kts | 123° |
| 2026-04-27 11:55 | 27.43551 | 33.27827 | 32943 ft | 559 kts | 124° |
| 2026-04-27 11:55 | 27.39761 | 33.35471 | 32940 ft | 559 kts | 124° |
| 2026-04-27 11:56 | 27.35967 | 33.43115 | 32934 ft | 560 kts | 124° |
| 2026-04-27 11:56 | 27.32173 | 33.50762 | 32935 ft | 560 kts | 124° |
| 2026-04-27 11:57 | 27.28381 | 33.58392 | 32918 ft | 558 kts | 124° |
| 2026-04-27 11:57 | 27.24586 | 33.66000 | 32917 ft | 558 kts | 124° |
| 2026-04-27 11:58 | 27.20794 | 33.73590 | 32913 ft | 558 kts | 124° |
| 2026-04-27 11:58 | 27.17177 | 33.81311 | 32907 ft | 563 kts | 116° |
| 2026-04-27 11:59 | 27.14283 | 33.89493 | 32927 ft | 564 kts | 116° |
| 2026-04-27 11:59 | 27.11364 | 33.97677 | 32929 ft | 565 kts | 116° |
| 2026-04-27 12:00 | 27.08422 | 34.05882 | 32940 ft | 567 kts | 116° |
| 2026-04-27 12:00 | 27.05463 | 34.14085 | 32932 ft | 567 kts | 116° |
| 2026-04-27 12:01 | 27.02498 | 34.22273 | 32927 ft | 566 kts | 116° |
| 2026-04-27 12:01 | 26.99536 | 34.30440 | 32926 ft | 566 kts | 116° |
| 2026-04-27 12:02 | 26.96559 | 34.38603 | 32917 ft | 566 kts | 117° |
| 2026-04-27 12:02 | 26.93595 | 34.46710 | 32906 ft | 566 kts | 117° |
| 2026-04-27 12:03 | 26.90610 | 34.54882 | 32907 ft | 567 kts | 117° |
| 2026-04-27 12:03 | 26.87614 | 34.63065 | 32902 ft | 568 kts | 117° |
| 2026-04-27 12:04 | 26.84614 | 34.71263 | 32901 ft | 569 kts | 117° |
| 2026-04-27 12:04 | 26.81603 | 34.79466 | 32904 ft | 570 kts | 117° |
| 2026-04-27 12:05 | 26.78578 | 34.87670 | 32896 ft | 570 kts | 117° |
| 2026-04-27 12:05 | 26.75547 | 34.95866 | 32899 ft | 571 kts | 117° |
| 2026-04-27 12:06 | 26.72509 | 35.04073 | 32899 ft | 571 kts | 117° |
| 2026-04-27 12:06 | 26.69471 | 35.12282 | 32896 ft | 571 kts | 117° |
| 2026-04-27 12:07 | 26.66429 | 35.20489 | 32901 ft | 571 kts | 117° |
| 2026-04-27 12:07 | 26.63393 | 35.28633 | 32903 ft | 571 kts | 117° |
| 2026-04-27 12:08 | 26.60334 | 35.36826 | 32907 ft | 571 kts | 117° |
| 2026-04-27 12:08 | 26.57283 | 35.45010 | 32910 ft | 571 kts | 117° |
| 2026-04-27 12:09 | 26.54223 | 35.53194 | 32911 ft | 571 kts | 117° |
| 2026-04-27 12:09 | 26.51150 | 35.61366 | 32903 ft | 571 kts | 118° |
| 2026-04-27 12:10 | 26.48074 | 35.69531 | 32904 ft | 570 kts | 118° |
| 2026-04-27 12:10 | 26.44996 | 35.77688 | 32907 ft | 570 kts | 118° |
| 2026-04-27 12:11 | 26.41919 | 35.85840 | 32905 ft | 570 kts | 118° |
| 2026-04-27 12:11 | 26.38839 | 35.93983 | 32910 ft | 569 kts | 118° |
| 2026-04-27 12:12 | 26.35755 | 36.02115 | 32916 ft | 569 kts | 118° |
| 2026-04-27 12:12 | 26.32668 | 36.10225 | 32913 ft | 568 kts | 118° |
| 2026-04-27 12:13 | 26.29579 | 36.18334 | 32925 ft | 568 kts | 118° |
| 2026-04-27 12:13 | 26.26519 | 36.26382 | 32934 ft | 567 kts | 118° |
| 2026-04-27 12:14 | 26.23427 | 36.34467 | 32938 ft | 567 kts | 118° |
| 2026-04-27 12:14 | 26.20328 | 36.42537 | 32939 ft | 566 kts | 118° |
| 2026-04-27 12:15 | 26.17095 | 36.50507 | 32932 ft | 560 kts | 125° |
| 2026-04-27 12:15 | 26.13359 | 36.58116 | 32935 ft | 560 kts | 125° |
| 2026-04-27 12:16 | 26.09614 | 36.65701 | 32929 ft | 560 kts | 125° |
| 2026-04-27 12:16 | 26.05860 | 36.73286 | 32923 ft | 560 kts | 125° |
| 2026-04-27 12:17 | 26.02108 | 36.80869 | 32912 ft | 559 kts | 125° |
| 2026-04-27 12:17 | 25.98993 | 36.87173 | 32915 ft | 559 kts | 125° |
| 2026-04-27 12:18 | 25.95243 | 36.94746 | 32911 ft | 559 kts | 125° |
| 2026-04-27 12:18 | 25.91497 | 37.02297 | 32888 ft | 557 kts | 125° |
| 2026-04-27 12:19 | 25.87752 | 37.09827 | 32893 ft | 556 kts | 125° |
| 2026-04-27 12:19 | 25.84001 | 37.17343 | 32895 ft | 556 kts | 125° |
| 2026-04-27 12:20 | 25.80248 | 37.24856 | 32892 ft | 556 kts | 125° |
| 2026-04-27 12:20 | 25.76498 | 37.32371 | 32896 ft | 557 kts | 125° |
| 2026-04-27 12:21 | 25.73452 | 37.40392 | 32903 ft | 569 kts | 116° |
| 2026-04-27 12:21 | 25.70612 | 37.48612 | 32924 ft | 571 kts | 116° |
| 2026-04-27 12:22 | 25.67792 | 37.56812 | 32919 ft | 568 kts | 116° |
| 2026-04-27 12:22 | 25.64975 | 37.64963 | 32913 ft | 566 kts | 116° |
| 2026-04-27 12:23 | 25.62160 | 37.73048 | 32909 ft | 566 kts | 116° |
| 2026-04-27 12:23 | 25.59321 | 37.81180 | 32904 ft | 566 kts | 116° |
| 2026-04-27 12:24 | 25.56484 | 37.89314 | 32900 ft | 566 kts | 116° |
| 2026-04-27 12:24 | 25.53646 | 37.97445 | 32891 ft | 566 kts | 116° |
| 2026-04-27 12:25 | 25.50801 | 38.05562 | 32881 ft | 565 kts | 116° |
| 2026-04-27 12:25 | 25.47956 | 38.13667 | 32871 ft | 566 kts | 116° |
| 2026-04-27 12:26 | 25.45104 | 38.21780 | 32866 ft | 566 kts | 116° |
| 2026-04-27 12:26 | 25.42248 | 38.29891 | 32864 ft | 566 kts | 116° |
| 2026-04-27 12:27 | 25.39390 | 38.37998 | 32859 ft | 566 kts | 116° |
| 2026-04-27 12:27 | 25.36522 | 38.46097 | 32862 ft | 565 kts | 117° |
| 2026-04-27 12:28 | 25.33647 | 38.54184 | 32870 ft | 565 kts | 117° |
| 2026-04-27 12:28 | 25.30780 | 38.62271 | 32867 ft | 565 kts | 116° |
| 2026-04-27 12:29 | 25.27909 | 38.70349 | 32883 ft | 564 kts | 117° |
| 2026-04-27 12:29 | 25.25021 | 38.78414 | 32881 ft | 564 kts | 117° |
| 2026-04-27 12:30 | 25.22157 | 38.86410 | 32887 ft | 564 kts | 117° |
| 2026-04-27 12:30 | 25.19277 | 38.94463 | 32895 ft | 564 kts | 117° |
| 2026-04-27 12:31 | 25.16391 | 39.02507 | 32892 ft | 563 kts | 117° |
| 2026-04-27 12:31 | 25.13497 | 39.10548 | 32897 ft | 564 kts | 117° |
| 2026-04-27 12:32 | 25.10596 | 39.18584 | 32904 ft | 564 kts | 117° |
| 2026-04-27 12:32 | 25.07695 | 39.26618 | 32911 ft | 563 kts | 117° |
| 2026-04-27 12:33 | 25.04800 | 39.34633 | 32912 ft | 563 kts | 117° |
| 2026-04-27 12:33 | 25.01898 | 39.42653 | 32914 ft | 563 kts | 117° |
| 2026-04-27 12:34 | 24.98984 | 39.50669 | 32921 ft | 563 kts | 117° |
| 2026-04-27 12:34 | 24.96065 | 39.58683 | 32926 ft | 563 kts | 117° |
| 2026-04-27 12:35 | 24.93145 | 39.66694 | 32929 ft | 563 kts | 117° |
| 2026-04-27 12:35 | 24.90213 | 39.74693 | 32926 ft | 563 kts | 117° |
| 2026-04-27 12:36 | 24.87309 | 39.82642 | 32925 ft | 563 kts | 117° |
| 2026-04-27 12:36 | 24.84384 | 39.90646 | 32927 ft | 563 kts | 117° |
| 2026-04-27 12:37 | 24.81427 | 39.98687 | 32924 ft | 563 kts | 117° |
| 2026-04-27 12:37 | 24.78494 | 40.06625 | 32921 ft | 564 kts | 117° |
| 2026-04-27 12:38 | 24.75526 | 40.14672 | 32919 ft | 564 kts | 117° |
| 2026-04-27 12:38 | 24.72603 | 40.22617 | 32919 ft | 564 kts | 117° |
| 2026-04-27 12:39 | 24.69646 | 40.30607 | 32922 ft | 563 kts | 117° |
| 2026-04-27 12:39 | 24.66677 | 40.38570 | 32927 ft | 563 kts | 117° |
| 2026-04-27 12:40 | 24.63723 | 40.46542 | 32923 ft | 563 kts | 117° |
| 2026-04-27 12:40 | 24.60770 | 40.54509 | 32919 ft | 563 kts | 117° |
| 2026-04-27 12:41 | 24.57797 | 40.62462 | 32930 ft | 562 kts | 117° |
| 2026-04-27 12:41 | 24.54815 | 40.70403 | 32937 ft | 562 kts | 117° |
| 2026-04-27 12:42 | 24.51839 | 40.78339 | 32946 ft | 562 kts | 117° |
| 2026-04-27 12:42 | 24.48876 | 40.86264 | 32954 ft | 561 kts | 117° |
| 2026-04-27 12:43 | 24.45906 | 40.94187 | 32957 ft | 561 kts | 117° |
| 2026-04-27 12:43 | 24.42925 | 41.02091 | 32963 ft | 560 kts | 117° |
| 2026-04-27 12:44 | 24.40780 | 41.10336 | 32962 ft | 568 kts | 99° |
| 2026-04-27 12:44 | 24.39888 | 41.18943 | 32964 ft | 568 kts | 98° |
| 2026-04-27 12:45 | 24.38989 | 41.27551 | 32968 ft | 568 kts | 99° |
| 2026-04-27 12:45 | 24.38070 | 41.36155 | 32971 ft | 568 kts | 99° |
| 2026-04-27 12:46 | 24.37143 | 41.44755 | 32976 ft | 567 kts | 99° |
| 2026-04-27 12:46 | 24.36227 | 41.53283 | 32974 ft | 567 kts | 99° |
| 2026-04-27 12:47 | 24.35311 | 41.61876 | 32983 ft | 567 kts | 99° |
| 2026-04-27 12:47 | 24.34389 | 41.70464 | 32979 ft | 567 kts | 99° |
| 2026-04-27 12:48 | 24.33449 | 41.79045 | 32975 ft | 567 kts | 99° |
| 2026-04-27 12:48 | 24.31919 | 41.87473 | 32973 ft | 564 kts | 106° |
| 2026-04-27 12:49 | 24.30216 | 41.95918 | 32978 ft | 569 kts | 105° |
| 2026-04-27 12:49 | 24.28636 | 42.04391 | 32975 ft | 565 kts | 104° |
| 2026-04-27 12:50 | 24.27127 | 42.12834 | 32978 ft | 564 kts | 104° |
| 2026-04-27 12:50 | 24.25598 | 42.21258 | 32985 ft | 563 kts | 104° |
| 2026-04-27 12:51 | 24.24042 | 42.29659 | 32986 ft | 562 kts | 105° |
| 2026-04-27 12:51 | 24.22482 | 42.38033 | 32982 ft | 560 kts | 105° |
| 2026-04-27 12:52 | 24.20945 | 42.46330 | 32980 ft | 559 kts | 105° |
| 2026-04-27 12:52 | 24.19392 | 42.54664 | 32985 ft | 558 kts | 105° |
| 2026-04-27 12:53 | 24.17056 | 42.67138 | 32987 ft | 557 kts | 105° |
| 2026-04-27 12:53 | 24.15495 | 42.75451 | 32989 ft | 557 kts | 105° |
| 2026-04-27 12:54 | 24.13928 | 42.83757 | 32991 ft | 557 kts | 105° |
| 2026-04-27 12:54 | 24.12357 | 42.92059 | 32992 ft | 557 kts | 105° |
| 2026-04-27 12:55 | 24.10778 | 43.00358 | 32989 ft | 557 kts | 105° |
| 2026-04-27 12:55 | 24.09201 | 43.08655 | 32992 ft | 557 kts | 105° |
| 2026-04-27 12:56 | 24.07616 | 43.16947 | 32981 ft | 557 kts | 105° |
| 2026-04-27 12:56 | 24.06026 | 43.25239 | 32973 ft | 557 kts | 105° |
| 2026-04-27 12:57 | 24.04432 | 43.33529 | 32967 ft | 558 kts | 105° |
| 2026-04-27 12:57 | 24.02848 | 43.41781 | 32962 ft | 558 kts | 105° |
| 2026-04-27 12:58 | 24.01249 | 43.50087 | 32959 ft | 558 kts | 105° |
| 2026-04-27 12:58 | 23.99640 | 43.58386 | 32956 ft | 558 kts | 105° |
| 2026-04-27 12:59 | 23.98019 | 43.66676 | 32939 ft | 557 kts | 105° |
| 2026-04-27 12:59 | 23.96396 | 43.74963 | 32930 ft | 557 kts | 105° |
| 2026-04-27 13:00 | 23.94785 | 43.83245 | 32903 ft | 557 kts | 105° |
| 2026-04-27 13:00 | 23.93170 | 43.91512 | 32887 ft | 557 kts | 105° |
| 2026-04-27 13:01 | 23.91542 | 43.99783 | 32879 ft | 557 kts | 105° |
| 2026-04-27 13:01 | 23.89905 | 44.08049 | 32876 ft | 556 kts | 105° |
| 2026-04-27 13:02 | 23.88271 | 44.16318 | 32875 ft | 557 kts | 105° |
| 2026-04-27 13:02 | 23.86641 | 44.24539 | 32884 ft | 557 kts | 105° |
| 2026-04-27 13:03 | 23.84989 | 44.32818 | 32901 ft | 558 kts | 105° |
| 2026-04-27 13:03 | 23.83340 | 44.41096 | 32906 ft | 557 kts | 105° |
| 2026-04-27 13:04 | 23.81685 | 44.49351 | 32902 ft | 557 kts | 105° |
| 2026-04-27 13:04 | 23.80026 | 44.57606 | 32903 ft | 556 kts | 105° |
| 2026-04-27 13:05 | 23.78368 | 44.65859 | 32905 ft | 556 kts | 105° |
| 2026-04-27 13:05 | 23.76700 | 44.74106 | 32901 ft | 556 kts | 105° |
| 2026-04-27 13:06 | 23.75024 | 44.82349 | 32900 ft | 556 kts | 105° |
| 2026-04-27 13:06 | 23.73354 | 44.90589 | 32891 ft | 556 kts | 105° |
| 2026-04-27 13:07 | 23.71681 | 44.98822 | 32887 ft | 556 kts | 105° |
| 2026-04-27 13:07 | 23.70000 | 45.07050 | 32886 ft | 555 kts | 105° |
| 2026-04-27 13:08 | 23.68319 | 45.15268 | 32881 ft | 555 kts | 105° |
| 2026-04-27 13:08 | 23.66902 | 45.23558 | 32865 ft | 558 kts | 97° |
| 2026-04-27 13:09 | 23.66213 | 45.32000 | 32872 ft | 559 kts | 97° |
| 2026-04-27 13:09 | 23.65636 | 45.39027 | 32872 ft | 559 kts | 97° |
| 2026-04-27 13:10 | 23.64812 | 45.48847 | 32868 ft | 560 kts | 97° |
| 2026-04-27 13:10 | 23.64101 | 45.57299 | 32864 ft | 560 kts | 97° |
| 2026-04-27 13:11 | 23.63501 | 45.64376 | 32864 ft | 560 kts | 97° |
| 2026-04-27 13:11 | 23.62783 | 45.72836 | 32870 ft | 560 kts | 97° |
| 2026-04-27 13:12 | 23.62057 | 45.81298 | 32871 ft | 560 kts | 97° |
| 2026-04-27 13:12 | 23.61323 | 45.89758 | 32870 ft | 560 kts | 97° |
| 2026-04-27 13:13 | 23.60586 | 45.98214 | 32873 ft | 560 kts | 97° |
| 2026-04-27 13:13 | 23.59850 | 46.06668 | 32870 ft | 560 kts | 97° |
| 2026-04-27 13:14 | 23.59112 | 46.15056 | 32874 ft | 560 kts | 97° |
| 2026-04-27 13:14 | 23.58369 | 46.23512 | 32879 ft | 560 kts | 97° |
| 2026-04-27 13:15 | 23.57619 | 46.31967 | 32883 ft | 560 kts | 97° |
| 2026-04-27 13:15 | 23.56858 | 46.40423 | 32888 ft | 561 kts | 97° |
| 2026-04-27 13:16 | 23.56085 | 46.48873 | 32891 ft | 561 kts | 97° |
| 2026-04-27 13:16 | 23.55315 | 46.57332 | 32882 ft | 561 kts | 97° |
| 2026-04-27 13:17 | 23.54602 | 46.65827 | 32888 ft | 565 kts | 96° |
| 2026-04-27 13:17 | 23.54295 | 46.70083 | 33068 ft | 562 kts | 95° |
| 2026-04-27 13:17 | 23.54007 | 46.74290 | 34972 ft | 540 kts | 94° |
| 2026-04-27 13:18 | 23.53741 | 46.78222 | 36689 ft | 512 kts | 95° |
| 2026-04-27 13:18 | 23.53472 | 46.82182 | 35768 ft | 539 kts | 95° |
| 2026-04-27 13:18 | 23.53182 | 46.86403 | 34555 ft | 574 kts | 96° |
| 2026-04-27 13:18 | 23.52871 | 46.90734 | 34748 ft | 574 kts | 96° |
| 2026-04-27 13:19 | 23.52544 | 46.95059 | 34979 ft | 574 kts | 96° |
| 2026-04-27 13:19 | 23.52204 | 46.99410 | 35013 ft | 579 kts | 96° |
| 2026-04-27 13:19 | 23.51505 | 47.08238 | 35010 ft | 591 kts | 96° |
| 2026-04-27 13:20 | 23.50805 | 47.17195 | 35013 ft | 603 kts | 96° |
| 2026-04-27 13:20 | 23.50109 | 47.26387 | 35007 ft | 612 kts | 96° |
| 2026-04-27 13:21 | 23.49280 | 47.35645 | 35001 ft | 618 kts | 99° |
| 2026-04-27 13:21 | 23.48162 | 47.44972 | 35011 ft | 622 kts | 101° |
| 2026-04-27 13:22 | 23.46990 | 47.54327 | 35007 ft | 623 kts | 100° |
| 2026-04-27 13:22 | 23.45899 | 47.63706 | 35011 ft | 624 kts | 99° |
| 2026-04-27 13:23 | 23.44856 | 47.73077 | 35008 ft | 624 kts | 99° |
| 2026-04-27 13:23 | 23.43791 | 47.82443 | 35011 ft | 623 kts | 99° |
| 2026-04-27 13:24 | 23.42690 | 47.91800 | 35010 ft | 623 kts | 100° |
| 2026-04-27 13:24 | 23.41590 | 48.01160 | 35004 ft | 623 kts | 99° |
| 2026-04-27 13:25 | 23.40495 | 48.10455 | 35005 ft | 622 kts | 99° |
| 2026-04-27 13:25 | 23.39390 | 48.19806 | 35004 ft | 622 kts | 99° |
| 2026-04-27 13:26 | 23.38283 | 48.29152 | 35014 ft | 622 kts | 100° |
| 2026-04-27 13:26 | 23.37167 | 48.38482 | 35014 ft | 623 kts | 100° |
| 2026-04-27 13:27 | 23.36040 | 48.47819 | 35013 ft | 623 kts | 100° |
| 2026-04-27 13:27 | 23.34914 | 48.57157 | 35007 ft | 622 kts | 100° |
| 2026-04-27 13:28 | 23.33786 | 48.66488 | 35007 ft | 622 kts | 100° |
| 2026-04-27 13:28 | 23.32651 | 48.75815 | 35006 ft | 621 kts | 100° |
| 2026-04-27 13:29 | 23.31500 | 48.85144 | 35011 ft | 622 kts | 100° |
| 2026-04-27 13:29 | 23.30344 | 48.94466 | 35009 ft | 621 kts | 100° |
| 2026-04-27 13:30 | 23.29196 | 49.03775 | 35014 ft | 621 kts | 100° |
| 2026-04-27 13:30 | 23.28041 | 49.13078 | 35009 ft | 621 kts | 100° |
| 2026-04-27 13:31 | 23.26878 | 49.22369 | 35003 ft | 621 kts | 100° |
| 2026-04-27 13:31 | 23.25716 | 49.31669 | 35013 ft | 620 kts | 100° |
| 2026-04-27 13:32 | 23.24549 | 49.40904 | 35010 ft | 620 kts | 101° |
| 2026-04-27 13:32 | 23.23370 | 49.50200 | 35017 ft | 620 kts | 100° |
| 2026-04-27 13:33 | 23.22189 | 49.59497 | 35013 ft | 621 kts | 101° |
| 2026-04-27 13:33 | 23.20998 | 49.68796 | 35014 ft | 622 kts | 101° |
| 2026-04-27 13:34 | 23.19795 | 49.78085 | 35007 ft | 622 kts | 101° |
| 2026-04-27 13:34 | 23.18588 | 49.87378 | 35008 ft | 621 kts | 101° |
| 2026-04-27 13:35 | 23.17383 | 49.96666 | 35003 ft | 620 kts | 101° |
| 2026-04-27 13:35 | 23.16174 | 50.05957 | 35014 ft | 621 kts | 101° |
| 2026-04-27 13:36 | 23.14961 | 50.15248 | 35014 ft | 620 kts | 101° |
| 2026-04-27 13:36 | 23.13739 | 50.24530 | 35014 ft | 621 kts | 101° |
| 2026-04-27 13:37 | 23.12505 | 50.33808 | 35016 ft | 621 kts | 101° |
| 2026-04-27 13:37 | 23.11275 | 50.43086 | 35014 ft | 621 kts | 101° |
| 2026-04-27 13:38 | 23.10036 | 50.52349 | 35004 ft | 621 kts | 101° |
| 2026-04-27 13:38 | 23.08794 | 50.61561 | 35005 ft | 620 kts | 101° |
| 2026-04-27 13:39 | 23.07543 | 50.70834 | 35004 ft | 620 kts | 101° |
| 2026-04-27 13:39 | 23.06291 | 50.80101 | 35006 ft | 620 kts | 101° |
| 2026-04-27 13:40 | 23.05036 | 50.89368 | 35008 ft | 620 kts | 101° |
| 2026-04-27 13:40 | 23.03769 | 50.98635 | 35008 ft | 621 kts | 101° |
| 2026-04-27 13:41 | 23.02497 | 51.07896 | 35011 ft | 620 kts | 101° |
| 2026-04-27 13:41 | 23.01225 | 51.17139 | 35007 ft | 620 kts | 101° |
| 2026-04-27 13:42 | 22.99947 | 51.26397 | 35013 ft | 620 kts | 101° |
| 2026-04-27 13:42 | 22.98658 | 51.35655 | 35009 ft | 620 kts | 101° |
| 2026-04-27 13:43 | 22.97360 | 51.44909 | 35010 ft | 620 kts | 102° |
| 2026-04-27 13:43 | 22.96059 | 51.54158 | 35016 ft | 620 kts | 101° |
| 2026-04-27 13:44 | 22.94750 | 51.63472 | 35005 ft | 630 kts | 102° |
| 2026-04-27 13:44 | 22.93419 | 51.72950 | 35010 ft | 641 kts | 101° |
| 2026-04-27 13:45 | 22.92214 | 51.82510 | 35009 ft | 642 kts | 99° |
| 2026-04-27 13:45 | 22.91121 | 51.92149 | 35015 ft | 644 kts | 96° |
| 2026-04-27 13:46 | 22.89992 | 52.01798 | 35004 ft | 646 kts | 97° |
| 2026-04-27 13:46 | 22.88803 | 52.11385 | 35017 ft | 644 kts | 97° |
| 2026-04-27 13:47 | 22.87583 | 52.21019 | 35004 ft | 646 kts | 97° |
| 2026-04-27 13:47 | 22.86377 | 52.30660 | 35005 ft | 645 kts | 97° |
| 2026-04-27 13:48 | 22.85190 | 52.40299 | 35012 ft | 645 kts | 97° |
| 2026-04-27 13:48 | 22.83990 | 52.49939 | 35010 ft | 646 kts | 97° |
| 2026-04-27 13:49 | 22.82774 | 52.59573 | 35005 ft | 644 kts | 97° |
| 2026-04-27 13:49 | 22.81549 | 52.69209 | 35016 ft | 646 kts | 98° |
| 2026-04-27 13:50 | 22.80313 | 52.78840 | 35011 ft | 645 kts | 97° |
| 2026-04-27 13:50 | 22.79085 | 52.88458 | 35015 ft | 645 kts | 97° |
| 2026-04-27 13:51 | 22.77857 | 52.98096 | 35009 ft | 645 kts | 97° |
| 2026-04-27 13:51 | 22.76611 | 53.07722 | 35003 ft | 646 kts | 98° |
| 2026-04-27 13:52 | 22.75358 | 53.17357 | 35008 ft | 645 kts | 98° |
| 2026-04-27 13:52 | 22.74100 | 53.26977 | 35015 ft | 645 kts | 98° |
| 2026-04-27 13:53 | 22.72223 | 53.41355 | 35007 ft | 645 kts | 98° |
| 2026-04-27 13:54 | 22.70965 | 53.50974 | 35014 ft | 645 kts | 98° |
| 2026-04-27 13:54 | 22.69688 | 53.60584 | 35004 ft | 645 kts | 98° |
| 2026-04-27 13:55 | 22.68401 | 53.70195 | 35010 ft | 645 kts | 98° |
| 2026-04-27 13:55 | 22.67114 | 53.79807 | 35008 ft | 644 kts | 98° |
| 2026-04-27 13:56 | 22.65829 | 53.89408 | 35002 ft | 646 kts | 98° |
| 2026-04-27 13:56 | 22.64517 | 53.99114 | 35000 ft | 657 kts | 98° |
| 2026-04-27 13:57 | 22.63176 | 54.08969 | 35017 ft | 666 kts | 98° |
| 2026-04-27 13:57 | 22.61827 | 54.18902 | 35133 ft | 668 kts | 98° |
| 2026-04-27 13:57 | 22.61152 | 54.23851 | 34987 ft | 659 kts | 98° |
| 2026-04-27 13:58 | 22.60481 | 54.28745 | 35019 ft | 656 kts | 98° |
| 2026-04-27 13:58 | 22.59130 | 54.38526 | 35012 ft | 657 kts | 98° |
| 2026-04-27 13:59 | 22.57798 | 54.48318 | 35007 ft | 658 kts | 96° |
| 2026-04-27 13:59 | 22.57644 | 54.53247 | 35020 ft | 652 kts | 83° |
| 2026-04-27 13:59 | 22.57862 | 54.58142 | 35008 ft | 650 kts | 83° |
| 2026-04-27 14:00 | 22.58312 | 54.67947 | 35007 ft | 654 kts | 82° |
| 2026-04-27 14:00 | 22.58765 | 54.77673 | 35030 ft | 648 kts | 83° |
| 2026-04-27 14:01 | 22.59210 | 54.87410 | 35011 ft | 652 kts | 82° |
| 2026-04-27 14:01 | 22.59648 | 54.97206 | 35003 ft | 646 kts | 83° |
| 2026-04-27 14:02 | 22.60061 | 55.06936 | 34996 ft | 652 kts | 83° |
| 2026-04-27 14:02 | 22.60486 | 55.16767 | 34999 ft | 654 kts | 83° |
| 2026-04-27 14:03 | 22.60841 | 55.24890 | 35009 ft | 649 kts | 83° |
| 2026-04-27 14:03 | 22.61258 | 55.34693 | 35017 ft | 655 kts | 83° |
| 2026-04-27 14:04 | 22.61662 | 55.44515 | 35000 ft | 648 kts | 83° |
| 2026-04-27 14:04 | 22.62064 | 55.54269 | 34995 ft | 650 kts | 79° |
| 2026-04-27 14:04 | 22.62793 | 55.59034 | 35005 ft | 633 kts | 66° |
| 2026-04-27 14:05 | 22.64298 | 55.63477 | 34999 ft | 627 kts | 57° |
| 2026-04-27 14:05 | 22.68725 | 55.71606 | 35013 ft | 633 kts | 50° |
| 2026-04-27 14:06 | 22.73367 | 55.79812 | 35009 ft | 645 kts | 52° |
| 2026-04-27 14:06 | 22.78056 | 55.88150 | 35006 ft | 646 kts | 51° |
| 2026-04-27 14:07 | 22.82691 | 55.96471 | 35003 ft | 645 kts | 51° |
| 2026-04-27 14:07 | 22.87253 | 56.04874 | 35006 ft | 649 kts | 54° |
| 2026-04-27 14:08 | 22.91539 | 56.13466 | 35006 ft | 648 kts | 57° |
| 2026-04-27 14:08 | 22.95689 | 56.22074 | 35006 ft | 648 kts | 56° |
| 2026-04-27 14:09 | 22.99934 | 56.30701 | 35007 ft | 648 kts | 55° |
| 2026-04-27 14:09 | 23.04256 | 56.39275 | 35008 ft | 648 kts | 55° |
| 2026-04-27 14:10 | 23.08582 | 56.47885 | 35015 ft | 649 kts | 55° |
| 2026-04-27 14:10 | 23.12862 | 56.56513 | 35021 ft | 650 kts | 55° |
| 2026-04-27 14:11 | 23.17137 | 56.65169 | 35018 ft | 650 kts | 56° |
| 2026-04-27 14:11 | 23.21420 | 56.73828 | 35022 ft | 650 kts | 56° |
| 2026-04-27 14:12 | 23.25713 | 56.82486 | 35022 ft | 651 kts | 55° |
| 2026-04-27 14:12 | 23.30001 | 56.91159 | 35016 ft | 651 kts | 55° |
| 2026-04-27 14:13 | 23.34282 | 56.99856 | 35013 ft | 653 kts | 56° |
| 2026-04-27 14:13 | 23.38022 | 57.08884 | 34985 ft | 663 kts | 75° |
| 2026-04-27 14:14 | 23.39587 | 57.18676 | 35011 ft | 655 kts | 84° |
| 2026-04-27 14:14 | 23.40178 | 57.23534 | 35008 ft | 638 kts | 87° |
| 2026-04-27 14:14 | 23.40673 | 57.28194 | 35469 ft | 601 kts | 87° |
| 2026-04-27 14:14 | 23.41115 | 57.32641 | 35002 ft | 578 kts | 88° |
| 2026-04-27 14:15 | 23.41443 | 57.36864 | 35076 ft | 545 kts | 89° |
| 2026-04-27 14:15 | 23.41662 | 57.40900 | 35095 ft | 527 kts | 90° |
| 2026-04-27 14:15 | 23.41833 | 57.44825 | 35014 ft | 510 kts | 89° |
| 2026-04-27 14:15 | 23.42019 | 57.48651 | 34029 ft | 503 kts | 88° |
| 2026-04-27 14:16 | 23.42253 | 57.52388 | 33763 ft | 484 kts | 86° |
| 2026-04-27 14:16 | 23.42523 | 57.55978 | 32074 ft | 473 kts | 82° |
| 2026-04-27 14:16 | 23.42826 | 57.59609 | 30754 ft | 491 kts | 82° |
| 2026-04-27 14:16 | 23.43156 | 57.63387 | 29193 ft | 512 kts | 83° |
| 2026-04-27 14:17 | 23.43495 | 57.67308 | 27732 ft | 526 kts | 83° |
| 2026-04-27 14:17 | 23.43822 | 57.71295 | 26592 ft | 530 kts | 83° |
| 2026-04-27 14:17 | 23.44136 | 57.75299 | 25547 ft | 531 kts | 84° |
| 2026-04-27 14:17 | 23.44438 | 57.79301 | 24665 ft | 529 kts | 84° |
| 2026-04-27 14:18 | 23.44733 | 57.83262 | 24069 ft | 520 kts | 84° |
| 2026-04-27 14:18 | 23.45026 | 57.87157 | 23528 ft | 512 kts | 84° |
| 2026-04-27 14:18 | 23.45318 | 57.90995 | 22870 ft | 506 kts | 84° |
| 2026-04-27 14:18 | 23.45611 | 57.94793 | 22158 ft | 500 kts | 84° |
| 2026-04-27 14:19 | 23.45904 | 57.98548 | 21421 ft | 495 kts | 84° |
| 2026-04-27 14:19 | 23.46193 | 58.02258 | 20703 ft | 487 kts | 84° |
| 2026-04-27 14:19 | 23.46471 | 58.05874 | 19373 ft | 474 kts | 85° |
| 2026-04-27 14:19 | 23.46740 | 58.09416 | 17968 ft | 465 kts | 85° |
| 2026-04-27 14:20 | 23.47003 | 58.12893 | 16441 ft | 456 kts | 85° |
| 2026-04-27 14:20 | 23.47254 | 58.16255 | 15079 ft | 447 kts | 85° |
| 2026-04-27 14:20 | 23.47505 | 58.19634 | 13793 ft | 437 kts | 85° |
| 2026-04-27 14:20 | 23.47749 | 58.22894 | 12380 ft | 429 kts | 85° |
| 2026-04-27 14:21 | 23.47993 | 58.26123 | 10892 ft | 425 kts | 85° |
| 2026-04-27 14:21 | 23.48248 | 58.29308 | 9513 ft | 419 kts | 85° |
| 2026-04-27 14:21 | 23.48515 | 58.32374 | 8636 ft | 399 kts | 82° |
| 2026-04-27 14:21 | 23.49171 | 58.35194 | 7777 ft | 377 kts | 64° |
| 2026-04-27 14:22 | 23.50417 | 58.37672 | 6651 ft | 370 kts | 57° |
| 2026-04-27 14:22 | 23.51706 | 58.40051 | 6044 ft | 352 kts | 57° |
| 2026-04-27 14:22 | 23.52886 | 58.42262 | 5868 ft | 323 kts | 57° |
| 2026-04-27 14:22 | 23.53957 | 58.44300 | 5538 ft | 301 kts | 57° |
| 2026-04-27 14:23 | 23.55074 | 58.46205 | 4985 ft | 293 kts | 43° |
| 2026-04-27 14:23 | 23.56663 | 58.47446 | 4587 ft | 271 kts | 14° |
| 2026-04-27 14:23 | 23.58445 | 58.47723 | 4324 ft | 252 kts | 351° |
| 2026-04-27 14:23 | 23.60093 | 58.47189 | 3583 ft | 247 kts | 326° |
| 2026-04-27 14:24 | 23.61344 | 58.45910 | 2950 ft | 252 kts | 301° |
| 2026-04-27 14:24 | 23.61938 | 58.44179 | 2744 ft | 237 kts | 279° |
| 2026-04-27 14:24 | 23.61922 | 58.42446 | 2444 ft | 223 kts | 268° |
| 2026-04-27 14:24 | 23.61787 | 58.40792 | 1994 ft | 213 kts | 267° |
| 2026-04-27 14:25 | 23.61660 | 58.39221 | 1712 ft | 199 kts | 268° |
| 2026-04-27 14:25 | 23.61546 | 58.37810 | 1461 ft | 177 kts | 269° |
| 2026-04-27 14:25 | 23.61445 | 58.36520 | 1247 ft | 165 kts | 267° |
| 2026-04-27 14:25 | 23.61348 | 58.35297 | 1057 ft | 156 kts | 268° |
| 2026-04-27 14:26 | 23.61256 | 58.34128 | 853 ft | 154 kts | 266° |
| 2026-04-27 14:26 | 23.61165 | 58.32975 | 663 ft | 152 kts | 265° |
| 2026-04-27 14:26 | 23.61071 | 58.31821 | 476 ft | 152 kts | 267° |
| 2026-04-27 14:26 | 23.60963 | 58.30672 | 313 ft | 153 kts | 272° |
| 2026-04-27 14:27 | 23.60884 | 58.29518 | 96 ft | 152 kts | 273° |
| 2026-04-27 14:27 | 23.60800 | 58.28425 | 38 ft | 131 kts | 267° |
| 2026-04-27 14:27 | 23.60742 | 58.27646 | 33 ft | 82 kts | 265° |
| 2026-04-27 14:27 | 23.60698 | 58.27177 | 36 ft | 39 kts | 259° |
| 2026-04-27 14:28 | 23.60604 | 58.26970 | 36 ft | 25 kts | 237° |
| 2026-04-27 14:28 | 23.60507 | 58.26819 | 35 ft | 17 kts | 233° |
| 2026-04-27 14:28 | 23.60446 | 58.26783 | 33 ft | 7 kts | 180° |
| 2026-04-27 14:28 | 23.60415 | 58.26822 | 34 ft | 9 kts | 96° |
| 2026-04-27 14:29 | 23.60420 | 58.26908 | 34 ft | 13 kts | 85° |
| 2026-04-27 14:29 | 23.60429 | 58.27017 | 34 ft | 17 kts | 85° |
| 2026-04-27 14:29 | 23.60441 | 58.27167 | 34 ft | 21 kts | 84° |
| 2026-04-27 14:29 | 23.60455 | 58.27325 | 34 ft | 22 kts | 85° |
| 2026-04-27 14:30 | 23.60468 | 58.27492 | 34 ft | 23 kts | 85° |
| 2026-04-27 14:30 | 23.60483 | 58.27667 | 34 ft | 23 kts | 85° |
| 2026-04-27 14:30 | 23.60495 | 58.27841 | 34 ft | 23 kts | 85° |
| 2026-04-27 14:30 | 23.60509 | 58.28014 | 34 ft | 24 kts | 85° |
| 2026-04-27 14:31 | 23.60524 | 58.28203 | 34 ft | 25 kts | 84° |
| 2026-04-27 14:31 | 23.60537 | 58.28347 | 34 ft | 11 kts | 85° |
| 2026-04-27 14:31 | 23.60527 | 58.28414 | 34 ft | 7 kts | 126° |
| 2026-04-27 14:31 | 23.60487 | 58.28433 | 34 ft | 6 kts | 163° |
| 2026-04-27 14:32 | 23.60453 | 58.28440 | 34 ft | 5 kts | 172° |
| 2026-04-27 14:32 | 23.60404 | 58.28445 | 34 ft | 9 kts | 175° |
| 2026-04-27 14:32 | 23.60343 | 58.28462 | 34 ft | 8 kts | 134° |
| 2026-04-27 14:32 | 23.60336 | 58.28513 | 34 ft | 6 kts | 88° |
| 2026-04-27 14:33 | 23.60339 | 58.28562 | 34 ft | 7 kts | 85° |
| 2026-04-27 14:33 | 23.60340 | 58.28576 | 34 ft | 0 kts | 84° |